createdAt,value
2022-08-06T00:00:05.700Z,20.73
2022-08-06T00:00:29.258Z,20.77
2022-08-06T00:01:01.407Z,20.76
2022-08-06T00:01:33.062Z,20.73
2022-08-06T00:02:06.911Z,20.66
2022-08-06T00:02:38.868Z,20.72
2022-08-06T00:03:10.520Z,20.68
2022-08-06T00:03:42.069Z,20.72
2022-08-06T00:04:13.709Z,20.72
2022-08-06T00:04:45.714Z,20.72
2022-08-06T00:05:27.570Z,20.76
2022-08-06T00:06:01.846Z,20.80
2022-08-06T00:06:34.569Z,20.89
2022-08-06T00:07:08.525Z,20.90
2022-08-06T00:07:47.476Z,20.84
2022-08-06T00:08:20.133Z,20.81
2022-08-06T00:08:52.165Z,20.84
2022-08-06T00:09:23.863Z,20.84
2022-08-06T00:10:00.847Z,20.84
2022-08-06T00:10:33.834Z,20.83
2022-08-06T00:11:06.845Z,20.91
2022-08-06T00:11:42.170Z,20.91
2022-08-06T00:12:19.455Z,20.93
2022-08-06T00:12:51.637Z,20.97
2022-08-06T00:13:23.419Z,20.91
2022-08-06T00:13:55.210Z,20.90
2022-08-06T00:14:31.773Z,20.89
2022-08-06T00:15:13.239Z,20.87
2022-08-06T00:16:08.714Z,20.86
2022-08-06T00:16:38.936Z,20.90
2022-08-06T00:17:10.967Z,20.89
2022-08-06T00:17:48.035Z,20.84
2022-08-06T00:18:24.258Z,20.86
2022-08-06T00:18:56.657Z,20.86
2022-08-06T00:19:28.550Z,20.80
2022-08-06T00:20:25.934Z,20.75
2022-08-06T00:21:02.902Z,20.72
2022-08-06T00:21:54.999Z,20.65
2022-08-06T00:22:27.699Z,20.65
2022-08-06T00:23:01.611Z,20.63
2022-08-06T00:23:35.033Z,20.65
2022-08-06T00:24:28.099Z,20.57
2022-08-06T00:25:00.634Z,20.60
2022-08-06T00:25:35.669Z,20.60
2022-08-06T00:26:16.666Z,20.59
2022-08-06T00:26:51.451Z,20.57
2022-08-06T00:27:39.332Z,20.56
2022-08-06T00:28:14.338Z,20.48
2022-08-06T00:28:46.470Z,20.43
2022-08-06T00:29:32.225Z,20.39
2022-08-06T00:30:18.624Z,20.33
2022-08-06T00:30:54.155Z,20.32
2022-08-06T00:31:30.349Z,20.29
2022-08-06T00:32:04.098Z,20.32
2022-08-06T00:32:35.959Z,20.36
2022-08-06T00:33:10.169Z,20.38
2022-08-06T00:33:49.827Z,20.41
2022-08-06T00:34:23.189Z,20.41
2022-08-06T00:34:57.332Z,20.45
2022-08-06T00:35:29.916Z,20.42
2022-08-06T00:36:02.366Z,20.41
2022-08-06T00:36:35.294Z,20.26
2022-08-06T00:37:18.433Z,20.28
2022-08-06T00:37:54.947Z,20.33
2022-08-06T00:38:30.365Z,20.36
2022-08-06T00:39:07.483Z,20.32
2022-08-06T00:39:41.089Z,20.28
2022-08-06T00:40:15.759Z,20.25
2022-08-06T00:40:58.811Z,20.22
2022-08-06T00:41:42.376Z,20.17
2022-08-06T00:42:18.159Z,20.17
2022-08-06T00:42:51.096Z,20.10
2022-08-06T00:43:39.701Z,20.08
2022-08-06T00:44:14.226Z,20.10
2022-08-06T00:44:48.080Z,20.04
2022-08-06T00:45:24.747Z,20.05
2022-08-06T00:45:56.759Z,20.05
2022-08-06T00:46:28.366Z,20.04
2022-08-06T00:47:00.954Z,20.08
2022-08-06T00:47:41.438Z,20.12
2022-08-06T00:48:36.918Z,20.12
2022-08-06T00:49:49.389Z,20.12
2022-08-06T00:50:08.052Z,20.11
2022-08-06T00:50:39.619Z,20.08
2022-08-06T00:51:11.573Z,20.11
2022-08-06T00:51:51.721Z,20.00
2022-08-06T00:52:26.326Z,20.07
2022-08-06T00:52:59.858Z,20.10
2022-08-06T00:53:33.804Z,20.07
2022-08-06T00:54:06.134Z,20.07
2022-08-06T00:54:39.170Z,19.97
2022-08-06T00:55:17.559Z,19.95
2022-08-06T00:55:59.735Z,19.94
2022-08-06T00:56:36.634Z,19.94
2022-08-06T00:57:12.057Z,19.94
2022-08-06T00:57:43.977Z,19.90
2022-08-06T00:58:15.541Z,19.90
2022-08-06T00:58:47.505Z,19.95
2022-08-06T00:59:19.145Z,19.97
2022-08-06T00:59:51.804Z,19.94
2022-08-06T01:00:29.436Z,19.95
2022-08-06T01:01:01.954Z,19.98
2022-08-06T01:01:50.364Z,20.01
2022-08-06T01:02:23.710Z,20.04
2022-08-06T01:02:58.252Z,20.05
2022-08-06T01:03:41.860Z,20.07
2022-08-06T01:04:15.886Z,20.11
2022-08-06T01:04:47.626Z,20.10
2022-08-06T01:06:03.923Z,20.14
2022-08-06T01:06:54.302Z,20.18
2022-08-06T01:07:04.319Z,20.21
2022-08-06T01:07:51.718Z,20.22
2022-08-06T01:08:24.540Z,20.26
2022-08-06T01:08:56.185Z,20.29
2022-08-06T01:09:31.666Z,20.31
2022-08-06T01:10:04.573Z,20.31
2022-08-06T01:10:42.424Z,20.15
2022-08-06T01:11:14.955Z,20.26
2022-08-06T01:11:47.650Z,20.28
2022-08-06T01:12:19.837Z,20.31
2022-08-06T01:13:04.310Z,20.31
2022-08-06T01:14:04.117Z,20.29
2022-08-06T01:14:38.797Z,20.28
2022-08-06T01:15:15.985Z,20.35
2022-08-06T01:16:08.584Z,20.33
2022-08-06T01:16:52.634Z,20.35
2022-08-06T01:18:01.622Z,20.36
2022-08-06T01:18:58.665Z,20.39
2022-08-06T01:19:50.744Z,20.33
2022-08-06T01:21:45.158Z,20.28
2022-08-06T01:22:30.935Z,20.29
2022-08-06T01:23:10.560Z,20.31
2022-08-06T01:24:01.005Z,20.28
2022-08-06T01:24:41.688Z,20.17
2022-08-06T01:25:48.524Z,20.22
2022-08-06T01:26:45.467Z,20.12
2022-08-06T01:27:43.682Z,20.18
2022-08-06T01:28:29.906Z,20.17
2022-08-06T01:29:35.075Z,20.15
2022-08-06T01:30:20.363Z,20.01
2022-08-06T01:31:05.284Z,20.04
2022-08-06T01:31:52.363Z,20.01
2022-08-06T01:32:33.146Z,20.05
2022-08-06T01:33:15.662Z,20.04
2022-08-06T01:34:13.452Z,20.10
2022-08-06T01:35:03.060Z,20.12
2022-08-06T01:35:46.385Z,20.12
2022-08-06T01:36:32.469Z,20.20
2022-08-06T01:37:16.820Z,20.14
2022-08-06T01:38:37.034Z,20.14
2022-08-06T01:39:22.812Z,19.94
2022-08-06T01:40:21.907Z,19.85
2022-08-06T01:40:57.041Z,19.83
2022-08-06T01:41:56.602Z,19.78
2022-08-06T01:42:36.524Z,19.85
2022-08-06T01:43:22.769Z,19.90
2022-08-06T01:44:05.358Z,19.84
2022-08-06T01:44:45.045Z,19.78
2022-08-06T01:45:20.368Z,19.73
2022-08-06T01:46:16.908Z,19.74
2022-08-06T01:46:51.966Z,19.62
2022-08-06T01:47:27.561Z,19.71
2022-08-06T01:48:28.675Z,19.64
2022-08-06T01:49:09.541Z,19.64
2022-08-06T01:50:01.693Z,19.66
2022-08-06T01:50:39.365Z,19.70
2022-08-06T01:52:10.907Z,19.67
2022-08-06T01:52:14.820Z,19.49
2022-08-06T01:52:59.568Z,19.52
2022-08-06T01:53:56.714Z,19.29
2022-08-06T01:54:39.110Z,19.32
2022-08-06T01:55:18.598Z,19.37
2022-08-06T01:55:59.223Z,19.40
2022-08-06T01:56:35.067Z,19.37
2022-08-06T01:58:08.705Z,19.43
2022-08-06T01:58:29.292Z,19.53
2022-08-06T01:59:04.423Z,19.57
2022-08-06T01:59:48.417Z,19.60
2022-08-06T02:01:15.105Z,19.54
2022-08-06T02:01:54.583Z,19.62
2022-08-06T02:02:30.742Z,19.52
2022-08-06T02:03:11.019Z,19.60
2022-08-06T02:03:59.574Z,19.69
2022-08-06T02:04:39.069Z,19.74
2022-08-06T02:05:13.205Z,19.77
2022-08-06T02:05:53.822Z,19.70
2022-08-06T02:06:31.060Z,19.73
2022-08-06T02:07:06.254Z,19.73
2022-08-06T02:08:37.670Z,19.77
2022-08-06T02:08:53.776Z,19.71
2022-08-06T02:09:27.981Z,19.71
2022-08-06T02:10:07.352Z,19.77
2022-08-06T02:10:41.291Z,19.77
2022-08-06T02:11:23.758Z,19.73
2022-08-06T02:12:11.005Z,19.62
2022-08-06T02:12:45.203Z,19.66
2022-08-06T02:13:20.695Z,19.69
2022-08-06T02:13:54.748Z,19.70
2022-08-06T02:14:30.044Z,19.57
2022-08-06T02:15:17.548Z,19.63
2022-08-06T02:15:58.856Z,19.63
2022-08-06T02:16:37.184Z,19.60
2022-08-06T02:17:16.648Z,19.60
2022-08-06T02:18:04.374Z,19.60
2022-08-06T02:18:43.675Z,19.54
2022-08-06T02:19:30.455Z,19.54
2022-08-06T02:20:18.600Z,19.50
2022-08-06T02:20:58.531Z,19.39
2022-08-06T02:21:57.650Z,19.43
2022-08-06T02:22:32.285Z,19.46
2022-08-06T02:23:08.665Z,19.26
2022-08-06T02:23:42.357Z,19.34
2022-08-06T02:24:18.533Z,19.33
2022-08-06T02:24:51.211Z,19.30
2022-08-06T02:25:30.792Z,19.29
2022-08-06T02:26:03.927Z,19.30
2022-08-06T02:26:38.636Z,19.32
2022-08-06T02:27:14.275Z,19.34
2022-08-06T02:27:53.413Z,19.26
2022-08-06T02:28:32.481Z,19.26
2022-08-06T02:29:06.953Z,19.27
2022-08-06T02:30:06.536Z,19.26
2022-08-06T02:30:43.130Z,19.27
2022-08-06T02:31:14.839Z,19.22
2022-08-06T02:31:50.318Z,19.22
2022-08-06T02:32:22.674Z,19.27
2022-08-06T02:32:55.606Z,19.25
2022-08-06T02:33:32.425Z,19.30
2022-08-06T02:34:27.502Z,19.26
2022-08-06T02:35:03.626Z,19.25
2022-08-06T02:36:02.396Z,19.30
2022-08-06T02:36:48.357Z,19.22
2022-08-06T02:38:02.406Z,19.13
2022-08-06T02:38:52.501Z,19.19
2022-08-06T02:39:52.501Z,19.27
2022-08-06T02:40:47.410Z,19.29
2022-08-06T02:41:49.716Z,19.30
2022-08-06T02:42:37.267Z,19.29
2022-08-06T02:43:16.442Z,19.37
2022-08-06T02:43:57.066Z,19.40
2022-08-06T02:45:10.989Z,19.45
2022-08-06T02:45:59.202Z,19.42
2022-08-06T02:46:39.922Z,19.20
2022-08-06T02:47:21.124Z,19.23
2022-08-06T02:48:22.356Z,19.30
2022-08-06T02:49:25.604Z,19.37
2022-08-06T02:50:01.828Z,19.30
2022-08-06T02:50:41.419Z,19.27
2022-08-06T02:52:11.937Z,19.25
2022-08-06T02:52:32.457Z,19.13
2022-08-06T02:53:24.868Z,19.02
2022-08-06T02:54:11.417Z,18.98
2022-08-06T02:54:49.018Z,18.96
2022-08-06T02:55:29.283Z,19.05
2022-08-06T02:56:12.002Z,19.08
2022-08-06T02:56:46.741Z,19.06
2022-08-06T02:57:37.910Z,19.11
2022-08-06T02:58:36.732Z,19.01
2022-08-06T02:59:13.329Z,19.06
2022-08-06T02:59:53.683Z,18.99
2022-08-06T03:00:29.766Z,18.99
2022-08-06T03:01:08.606Z,18.91
2022-08-06T03:01:48.528Z,18.78
2022-08-06T03:02:26.169Z,18.79
2022-08-06T03:03:01.437Z,18.78
2022-08-06T03:03:35.709Z,18.76
2022-08-06T03:04:08.871Z,18.84
2022-08-06T03:04:54.438Z,18.85
2022-08-06T03:05:55.817Z,18.79
2022-08-06T03:06:21.857Z,18.78
2022-08-06T03:07:01.121Z,18.72
2022-08-06T03:07:34.638Z,18.79
2022-08-06T03:08:09.265Z,18.85
2022-08-06T03:08:43.358Z,18.85
2022-08-06T03:09:20.121Z,18.85
2022-08-06T03:09:53.131Z,18.87
2022-08-06T03:10:30.736Z,18.84
2022-08-06T03:11:03.580Z,18.91
2022-08-06T03:11:38.089Z,18.84
2022-08-06T03:12:30.389Z,18.89
2022-08-06T03:13:05.560Z,18.87
2022-08-06T03:13:46.014Z,18.91
2022-08-06T03:15:03.448Z,18.87
2022-08-06T03:15:16.834Z,18.94
2022-08-06T03:16:22.813Z,18.89
2022-08-06T03:16:58.313Z,18.92
2022-08-06T03:17:32.492Z,18.89
2022-08-06T03:18:05.662Z,18.87
2022-08-06T03:18:37.858Z,18.83
2022-08-06T03:19:57.135Z,18.85
2022-08-06T03:20:04.292Z,18.84
2022-08-06T03:20:37.152Z,18.87
2022-08-06T03:21:11.381Z,18.74
2022-08-06T03:21:45.702Z,18.67
2022-08-06T03:22:36.103Z,18.71
2022-08-06T03:23:16.479Z,18.75
2022-08-06T03:23:49.469Z,18.75
2022-08-06T03:24:22.268Z,18.85
2022-08-06T03:24:54.745Z,18.92
2022-08-06T03:25:31.047Z,18.91
2022-08-06T03:26:05.100Z,19.01
2022-08-06T03:26:38.199Z,19.05
2022-08-06T03:27:11.568Z,19.11
2022-08-06T03:27:49.532Z,19.16
2022-08-06T03:28:22.880Z,19.19
2022-08-06T03:29:00.013Z,19.15
2022-08-06T03:29:33.535Z,19.13
2022-08-06T03:30:05.961Z,19.15
2022-08-06T03:30:41.031Z,19.20
2022-08-06T03:31:13.526Z,19.18
2022-08-06T03:31:58.591Z,19.16
2022-08-06T03:32:51.533Z,19.15
2022-08-06T03:33:29.473Z,19.16
2022-08-06T03:34:14.517Z,19.15
2022-08-06T03:34:47.665Z,19.13
2022-08-06T03:35:49.993Z,19.13
2022-08-06T03:36:17.576Z,18.85
2022-08-06T03:36:51.152Z,18.85
2022-08-06T03:37:45.249Z,18.81
2022-08-06T03:38:17.133Z,18.71
2022-08-06T03:38:59.016Z,18.64
2022-08-06T03:39:33.299Z,18.51
2022-08-06T03:40:06.677Z,18.64
2022-08-06T03:40:43.133Z,18.65
2022-08-06T03:41:18.237Z,18.61
2022-08-06T03:42:08.342Z,18.69
2022-08-06T03:42:40.834Z,18.63
2022-08-06T03:43:16.273Z,18.65
2022-08-06T03:44:03.923Z,18.68
2022-08-06T03:44:38.866Z,18.71
2022-08-06T03:45:23.548Z,18.72
2022-08-06T03:46:00.883Z,18.75
2022-08-06T03:46:44.769Z,18.76
2022-08-06T03:47:31.132Z,18.79
2022-08-06T03:48:35.556Z,18.76
2022-08-06T03:49:15.451Z,18.81
2022-08-06T03:50:20.041Z,18.75
2022-08-06T03:50:54.197Z,18.84
2022-08-06T03:51:52.931Z,18.94
2022-08-06T03:52:28.044Z,19.02
2022-08-06T03:53:03.229Z,19.06
2022-08-06T03:53:38.588Z,19.05
2022-08-06T03:54:13.831Z,19.05
2022-08-06T03:54:50.993Z,19.05
2022-08-06T03:55:28.913Z,18.98
2022-08-06T03:56:03.217Z,18.99
2022-08-06T03:56:38.222Z,18.94
2022-08-06T03:57:14.681Z,18.95
2022-08-06T03:57:51.746Z,18.94
2022-08-06T03:58:28.529Z,18.89
2022-08-06T03:59:04.613Z,18.88
2022-08-06T03:59:43.746Z,18.75
2022-08-06T04:00:34.181Z,18.87
2022-08-06T04:01:12.235Z,18.89
2022-08-06T04:01:49.925Z,18.95
2022-08-06T04:02:24.642Z,18.95
2022-08-06T04:03:10.314Z,19.04
2022-08-06T04:03:45.180Z,19.08
2022-08-06T04:04:27.280Z,19.08
2022-08-06T04:05:01.427Z,19.15
2022-08-06T04:05:34.505Z,19.15
2022-08-06T04:06:15.953Z,19.18
2022-08-06T04:06:52.013Z,19.16
2022-08-06T04:07:24.222Z,19.15
2022-08-06T04:08:16.642Z,19.23
2022-08-06T04:08:49.400Z,19.29
2022-08-06T04:09:57.595Z,19.36
2022-08-06T04:10:13.803Z,19.39
2022-08-06T04:10:58.034Z,19.39
2022-08-06T04:12:13.070Z,19.45
2022-08-06T04:12:42.589Z,19.46
2022-08-06T04:14:04.870Z,19.43
2022-08-06T04:14:11.359Z,19.36
2022-08-06T04:14:47.371Z,19.43
2022-08-06T04:15:19.288Z,19.49
2022-08-06T04:15:53.726Z,19.56
2022-08-06T04:16:30.135Z,19.59
2022-08-06T04:17:07.418Z,19.69
2022-08-06T04:17:45.399Z,19.66
2022-08-06T04:18:25.550Z,19.71
2022-08-06T04:18:58.277Z,19.64
2022-08-06T04:19:32.609Z,19.64
2022-08-06T04:20:08.855Z,19.66
2022-08-06T04:20:44.983Z,19.73
2022-08-06T04:23:05.246Z,19.77
2022-08-06T04:23:05.829Z,19.73
2022-08-06T04:23:10.323Z,19.80
2022-08-06T04:23:44.390Z,19.85
2022-08-06T04:24:17.056Z,19.78
2022-08-06T04:24:49.112Z,19.83
2022-08-06T04:25:21.206Z,19.81
2022-08-06T04:25:56.976Z,19.83
2022-08-06T04:26:29.810Z,19.84
2022-08-06T04:27:09.791Z,19.91
2022-08-06T04:27:51.675Z,20.00
2022-08-06T04:28:29.051Z,20.12
2022-08-06T04:29:02.597Z,20.22
2022-08-06T04:29:56.984Z,20.20
2022-08-06T04:30:29.325Z,20.15
2022-08-06T04:31:02.462Z,20.20
2022-08-06T04:32:11.666Z,20.20
2022-08-06T04:32:32.994Z,20.20
2022-08-06T04:33:09.053Z,20.18
2022-08-06T04:33:47.227Z,20.26
2022-08-06T04:34:29.024Z,20.31
2022-08-06T04:36:07.091Z,20.36
2022-08-06T04:36:17.528Z,20.31
2022-08-06T04:36:53.824Z,20.33
2022-08-06T04:37:25.922Z,20.31
2022-08-06T04:38:02.657Z,20.32
2022-08-06T04:38:35.017Z,20.38
2022-08-06T04:39:09.035Z,20.41
2022-08-06T04:39:50.218Z,20.48
2022-08-06T04:40:34.389Z,20.51
2022-08-06T04:41:15.845Z,20.59
2022-08-06T04:41:48.788Z,20.66
2022-08-06T04:42:29.329Z,20.75
2022-08-06T04:43:01.150Z,20.79
2022-08-06T04:43:38.822Z,20.84
2022-08-06T04:44:24.435Z,20.91
2022-08-06T04:45:00.279Z,20.91
2022-08-06T04:46:17.677Z,20.91
2022-08-06T04:46:27.571Z,20.99
2022-08-06T04:46:59.496Z,21.03
2022-08-06T04:47:33.741Z,21.11
2022-08-06T04:48:21.269Z,21.04
2022-08-06T04:48:57.029Z,21.04
2022-08-06T04:49:58.401Z,21.08
2022-08-06T04:50:24.166Z,21.11
2022-08-06T04:50:56.195Z,21.14
2022-08-06T04:52:35.417Z,21.17
2022-08-06T04:52:42.850Z,21.26
2022-08-06T04:53:24.093Z,21.38
2022-08-06T04:54:12.363Z,21.42
2022-08-06T04:54:44.567Z,21.39
2022-08-06T04:55:25.019Z,21.44
2022-08-06T04:56:09.330Z,21.37
2022-08-06T04:56:49.556Z,21.47
2022-08-06T04:57:33.615Z,21.54
2022-08-06T04:58:11.270Z,21.61
2022-08-06T04:58:44.066Z,21.62
2022-08-06T04:59:16.185Z,21.69
2022-08-06T04:59:50.076Z,21.74
2022-08-06T05:00:34.054Z,21.79
2022-08-06T05:01:14.404Z,21.85
2022-08-06T05:01:56.750Z,21.86
2022-08-06T05:02:32.360Z,21.93
2022-08-06T05:03:05.346Z,22.02
2022-08-06T05:04:06.498Z,22.06
2022-08-06T05:04:32.688Z,22.14
2022-08-06T05:05:08.165Z,22.17
2022-08-06T05:05:56.151Z,22.13
2022-08-06T05:06:47.882Z,22.14
2022-08-06T05:07:28.981Z,22.19
2022-08-06T05:08:03.002Z,22.20
2022-08-06T05:08:38.025Z,22.17
2022-08-06T05:09:23.533Z,22.24
2022-08-06T05:10:08.113Z,22.24
2022-08-06T05:10:51.823Z,22.23
2022-08-06T05:11:57.338Z,22.23
2022-08-06T05:12:40.276Z,22.26
2022-08-06T05:13:16.183Z,22.24
2022-08-06T05:14:14.217Z,22.24
2022-08-06T05:14:56.874Z,22.32
2022-08-06T05:15:38.277Z,22.34
2022-08-06T05:16:15.554Z,22.33
2022-08-06T05:16:52.680Z,22.36
2022-08-06T05:17:34.761Z,22.39
2022-08-06T05:19:20.835Z,22.41
2022-08-06T05:19:39.381Z,22.50
2022-08-06T05:20:27.666Z,22.56
2022-08-06T05:21:03.093Z,22.65
2022-08-06T05:22:11.463Z,22.74
2022-08-06T05:22:52.308Z,22.83
2022-08-06T05:23:32.024Z,22.88
2022-08-06T05:24:05.499Z,22.87
2022-08-06T05:24:39.470Z,22.87
2022-08-06T05:25:30.041Z,22.98
2022-08-06T05:26:08.604Z,22.99
2022-08-06T05:26:43.059Z,23.02
2022-08-06T05:27:15.584Z,23.08
2022-08-06T05:28:03.269Z,23.08
2022-08-06T05:28:40.454Z,23.09
2022-08-06T05:29:12.067Z,23.16
2022-08-06T05:29:52.577Z,23.19
2022-08-06T05:30:28.305Z,23.22
2022-08-06T05:31:00.476Z,23.27
2022-08-06T05:31:38.506Z,23.35
2022-08-06T05:32:11.204Z,23.39
2022-08-06T05:32:50.781Z,23.45
2022-08-06T05:33:39.138Z,23.52
2022-08-06T05:34:14.262Z,23.62
2022-08-06T05:34:51.568Z,23.66
2022-08-06T05:35:23.712Z,23.70
2022-08-06T05:36:19.673Z,23.74
2022-08-06T05:36:51.670Z,23.78
2022-08-06T05:38:00.754Z,23.85
2022-08-06T05:38:20.931Z,23.96
2022-08-06T05:39:04.082Z,23.98
2022-08-06T05:39:58.630Z,24.02
2022-08-06T05:40:34.860Z,24.15
2022-08-06T05:41:24.011Z,24.21
2022-08-06T05:42:01.503Z,24.26
2022-08-06T05:42:33.192Z,24.32
2022-08-06T05:43:04.755Z,24.38
2022-08-06T05:43:57.959Z,24.41
2022-08-06T05:44:30.900Z,24.47
2022-08-06T05:45:03.146Z,24.55
2022-08-06T05:45:37.262Z,24.56
2022-08-06T05:46:24.821Z,24.65
2022-08-06T05:47:06.566Z,24.63
2022-08-06T05:47:47.847Z,24.68
2022-08-06T05:48:32.901Z,24.70
2022-08-06T05:49:12.195Z,24.69
2022-08-06T05:50:06.793Z,24.77
2022-08-06T05:50:48.158Z,24.80
2022-08-06T05:52:03.094Z,24.86
2022-08-06T05:52:43.212Z,25.00
2022-08-06T05:54:02.592Z,25.10
2022-08-06T05:54:34.255Z,25.26
2022-08-06T05:55:12.407Z,25.31
2022-08-06T05:55:58.949Z,25.37
2022-08-06T05:56:39.725Z,25.47
2022-08-06T05:57:42.347Z,25.51
2022-08-06T05:58:19.857Z,25.61
2022-08-06T05:58:56.625Z,25.69
2022-08-06T05:59:38.220Z,25.75
2022-08-06T06:00:32.254Z,25.88
2022-08-06T06:01:15.426Z,25.95
2022-08-06T06:01:48.507Z,25.98
2022-08-06T06:02:23.218Z,25.99
2022-08-06T06:02:56.965Z,25.95
2022-08-06T06:03:33.443Z,25.98
2022-08-06T06:04:06.622Z,25.93
2022-08-06T06:04:39.172Z,25.96
2022-08-06T06:06:05.983Z,25.92
2022-08-06T06:06:17.656Z,25.98
2022-08-06T06:06:50.604Z,26.00
2022-08-06T06:08:08.996Z,26.06
2022-08-06T06:08:37.444Z,26.10
2022-08-06T06:09:14.510Z,26.16
2022-08-06T06:10:02.973Z,26.22
2022-08-06T06:10:37.360Z,26.35
2022-08-06T06:11:12.365Z,26.41
2022-08-06T06:12:01.475Z,26.46
2022-08-06T06:12:35.644Z,26.51
2022-08-06T06:13:24.798Z,26.50
2022-08-06T06:14:00.522Z,26.51
2022-08-06T06:14:41.521Z,26.48
2022-08-06T06:16:00.894Z,26.48
2022-08-06T06:16:42.165Z,26.46
2022-08-06T06:17:20.544Z,26.47
2022-08-06T06:18:20.092Z,26.51
2022-08-06T06:19:31.948Z,26.58
2022-08-06T06:20:58.237Z,26.70
2022-08-06T06:24:49.764Z,27.38
2022-08-06T06:25:30.981Z,27.42
2022-08-06T06:26:32.628Z,27.36
2022-08-06T06:27:42.336Z,27.32
2022-08-06T06:28:28.435Z,27.36
2022-08-06T06:29:11.241Z,27.38
2022-08-06T06:30:10.441Z,27.24
2022-08-06T06:31:58.500Z,27.32
2022-08-06T06:32:32.339Z,27.39
2022-08-06T06:33:16.684Z,27.39
2022-08-06T06:33:51.308Z,27.50
2022-08-06T06:34:40.912Z,27.57
2022-08-06T06:35:42.690Z,27.66
2022-08-06T06:36:46.616Z,27.77
2022-08-06T06:37:39.435Z,27.77
2022-08-06T06:38:50.182Z,27.90
2022-08-06T06:39:37.552Z,27.82
2022-08-06T06:40:35.113Z,27.86
2022-08-06T06:41:23.078Z,27.82
2022-08-06T06:42:32.605Z,27.76
2022-08-06T06:43:44.597Z,27.79
2022-08-06T06:45:04.688Z,27.79
2022-08-06T06:46:35.408Z,27.82
2022-08-06T06:46:48.063Z,27.70
2022-08-06T06:47:33.764Z,27.76
2022-08-06T06:48:16.801Z,27.83
2022-08-06T06:48:58.475Z,27.87
2022-08-06T06:49:59.182Z,28.00
2022-08-06T06:50:40.924Z,28.01
2022-08-06T06:51:56.987Z,27.96
2022-08-06T06:52:50.027Z,27.93
2022-08-06T06:53:24.021Z,28.01
2022-08-06T06:54:08.985Z,28.08
2022-08-06T06:54:45.990Z,28.20
2022-08-06T06:55:55.514Z,28.27
2022-08-06T06:56:36.440Z,28.22
2022-08-06T06:57:11.693Z,28.34
2022-08-06T06:57:47.336Z,28.38
2022-08-06T06:58:24.528Z,28.45
2022-08-06T06:59:03.829Z,28.44
2022-08-06T07:00:01.477Z,28.42
2022-08-06T07:00:46.444Z,28.27
2022-08-06T07:01:28.397Z,28.25
2022-08-06T07:02:06.771Z,28.24
2022-08-06T07:02:47.382Z,28.31
2022-08-06T07:03:23.123Z,28.48
2022-08-06T07:04:16.418Z,28.49
2022-08-06T07:04:49.855Z,28.58
2022-08-06T07:06:04.504Z,28.65
2022-08-06T07:06:31.511Z,28.66
2022-08-06T07:07:15.018Z,28.69
2022-08-06T07:07:56.788Z,28.73
2022-08-06T07:08:37.545Z,28.80
2022-08-06T07:09:39.545Z,28.78
2022-08-06T07:10:15.161Z,28.86
2022-08-06T07:10:49.632Z,28.90
2022-08-06T07:11:26.460Z,28.98
2022-08-06T07:12:03.170Z,29.11
2022-08-06T07:12:36.688Z,29.20
2022-08-06T07:13:15.891Z,29.19
2022-08-06T07:13:51.158Z,29.21
2022-08-06T07:14:25.186Z,29.27
2022-08-06T07:15:01.287Z,29.35
2022-08-06T07:15:42.945Z,29.26
2022-08-06T07:16:34.888Z,29.16
2022-08-06T07:17:46.715Z,29.24
2022-08-06T07:18:09.355Z,29.27
2022-08-06T07:18:55.017Z,29.33
2022-08-06T07:19:28.033Z,29.30
2022-08-06T07:20:05.976Z,29.31
2022-08-06T07:20:40.681Z,29.34
2022-08-06T07:21:15.748Z,29.34
2022-08-06T07:21:52.623Z,29.31
2022-08-06T07:22:26.275Z,29.31
2022-08-06T07:24:04.589Z,29.29
2022-08-06T07:24:08.241Z,29.27
2022-08-06T07:24:47.255Z,29.41
2022-08-06T07:25:24.255Z,29.38
2022-08-06T07:25:56.530Z,29.27
2022-08-06T07:26:31.808Z,29.33
2022-08-06T07:27:40.385Z,29.31
2022-08-06T07:28:01.484Z,29.43
2022-08-06T07:28:35.670Z,29.57
2022-08-06T07:29:10.249Z,29.58
2022-08-06T07:29:49.914Z,29.64
2022-08-06T07:30:34.144Z,29.75
2022-08-06T07:31:09.071Z,29.64
2022-08-06T07:31:42.032Z,29.58
2022-08-06T07:32:31.858Z,29.74
2022-08-06T07:33:05.468Z,29.72
2022-08-06T07:33:42.914Z,29.99
2022-08-06T07:34:34.506Z,30.17
2022-08-06T07:35:13.161Z,30.30
2022-08-06T07:35:48.229Z,30.35
2022-08-06T07:36:22.974Z,30.10
2022-08-06T07:36:58.933Z,30.16
2022-08-06T07:37:39.267Z,30.16
2022-08-06T07:38:13.605Z,30.20
2022-08-06T07:38:48.025Z,30.16
2022-08-06T07:39:27.135Z,30.05
2022-08-06T07:40:01.592Z,30.15
2022-08-06T07:40:54.145Z,30.23
2022-08-06T07:41:32.034Z,30.32
2022-08-06T07:42:21.585Z,30.50
2022-08-06T07:43:01.186Z,30.59
2022-08-06T07:43:39.626Z,30.56
2022-08-06T07:44:14.098Z,30.66
2022-08-06T07:44:54.923Z,30.73
2022-08-06T07:45:51.138Z,30.64
2022-08-06T07:46:34.649Z,30.64
2022-08-06T07:47:36.967Z,30.53
2022-08-06T07:48:06.317Z,30.77
2022-08-06T07:48:52.375Z,30.83
2022-08-06T07:49:31.826Z,30.73
2022-08-06T07:50:24.836Z,30.95
2022-08-06T07:50:58.230Z,30.85
2022-08-06T07:51:35.673Z,31.12
2022-08-06T07:52:10.235Z,31.14
2022-08-06T07:52:43.800Z,31.11
2022-08-06T07:53:16.804Z,31.11
2022-08-06T07:53:56.734Z,31.08
2022-08-06T07:54:33.767Z,31.21
2022-08-06T07:55:08.268Z,31.14
2022-08-06T07:55:43.365Z,31.14
2022-08-06T07:56:15.835Z,31.41
2022-08-06T07:57:00.711Z,31.61
2022-08-06T07:57:54.449Z,31.42
2022-08-06T07:58:30.589Z,31.46
2022-08-06T07:59:04.717Z,31.47
2022-08-06T07:59:40.282Z,31.79
2022-08-06T08:00:16.946Z,31.92
2022-08-06T08:00:49.980Z,31.94
2022-08-06T08:01:22.407Z,31.86
2022-08-06T08:02:03.418Z,31.98
2022-08-06T08:02:35.818Z,31.98
2022-08-06T08:03:57.579Z,31.83
2022-08-06T08:04:52.284Z,32.07
2022-08-06T08:06:00.423Z,31.98
2022-08-06T08:06:39.990Z,32.34
2022-08-06T08:07:16.445Z,32.51
2022-08-06T08:07:53.743Z,32.52
2022-08-06T08:08:30.773Z,32.55
2022-08-06T08:09:29.547Z,32.65
2022-08-06T08:10:15.650Z,32.74
2022-08-06T08:10:48.152Z,32.61
2022-08-06T08:11:38.299Z,32.64
2022-08-06T08:12:26.283Z,32.75
2022-08-06T08:13:02.459Z,32.76
2022-08-06T08:13:41.466Z,32.64
2022-08-06T08:14:19.382Z,32.64
2022-08-06T08:14:53.100Z,32.75
2022-08-06T08:15:25.330Z,32.88
2022-08-06T08:16:00.837Z,32.72
2022-08-06T08:16:38.542Z,33.05
2022-08-06T08:17:12.099Z,32.90
2022-08-06T08:17:43.920Z,33.19
2022-08-06T08:18:18.473Z,33.00
2022-08-06T08:18:52.096Z,33.15
2022-08-06T08:19:27.427Z,33.09
2022-08-06T08:20:15.423Z,33.49
2022-08-06T08:20:51.191Z,33.12
2022-08-06T08:21:27.060Z,33.37
2022-08-06T08:22:00.425Z,33.51
2022-08-06T08:22:35.854Z,33.68
2022-08-06T08:23:25.032Z,33.81
2022-08-06T08:24:05.133Z,33.67
2022-08-06T08:24:39.235Z,33.82
2022-08-06T08:25:11.877Z,33.93
2022-08-06T08:25:46.639Z,33.81
2022-08-06T08:26:21.688Z,33.78
2022-08-06T08:27:21.562Z,33.61
2022-08-06T08:27:48.718Z,33.81
2022-08-06T08:28:20.301Z,33.97
2022-08-06T08:28:52.761Z,34.02
2022-08-06T08:29:27.409Z,33.80
2022-08-06T08:30:00.081Z,33.67
2022-08-06T08:30:38.463Z,33.66
2022-08-06T08:31:20.616Z,33.85
2022-08-06T08:31:59.838Z,34.00
2022-08-06T08:32:31.996Z,34.12
2022-08-06T08:33:11.401Z,33.90
2022-08-06T08:33:47.423Z,33.66
2022-08-06T08:34:19.439Z,33.54
2022-08-06T08:34:58.947Z,33.74
2022-08-06T08:35:37.168Z,33.70
2022-08-06T08:36:11.601Z,33.88
2022-08-06T08:36:45.290Z,33.74
2022-08-06T08:37:18.614Z,33.81
2022-08-06T08:37:52.314Z,33.71
2022-08-06T08:38:26.873Z,33.91
2022-08-06T08:39:06.243Z,34.19
2022-08-06T08:39:43.252Z,34.21
2022-08-06T08:40:15.156Z,34.15
2022-08-06T08:40:48.790Z,34.43
2022-08-06T08:41:43.016Z,34.48
2022-08-06T08:42:38.248Z,35.37
2022-08-06T08:43:20.056Z,35.44
2022-08-06T08:44:01.034Z,35.75
2022-08-06T08:44:36.198Z,35.64
2022-08-06T08:45:13.331Z,35.59
2022-08-06T08:45:51.258Z,35.40
2022-08-06T08:46:31.260Z,35.35
2022-08-06T08:47:12.407Z,35.89
2022-08-06T08:47:57.780Z,36.10
2022-08-06T08:48:31.009Z,35.82
2022-08-06T08:49:05.950Z,35.81
2022-08-06T08:49:47.340Z,35.92
2022-08-06T08:50:26.415Z,36.05
2022-08-06T08:51:02.570Z,36.33
2022-08-06T08:51:43.163Z,36.02
2022-08-06T08:52:24.677Z,36.46
2022-08-06T08:53:06.981Z,36.19
2022-08-06T08:53:53.583Z,36.46
2022-08-06T08:54:35.049Z,36.05
2022-08-06T08:57:05.970Z,36.20
2022-08-06T08:57:06.045Z,36.63
2022-08-06T08:57:11.241Z,36.84
2022-08-06T08:58:41.888Z,36.98